sensor_id;sensor_type;location;lat;lon;timestamp;pressure;altitude;pressure_sealevel;temperature;humidity
84020;BME280;74102;49.084;13.694;2024-02-23T00:00:57;91177.78;;;7.49;82.82
84020;BME280;74102;49.084;13.694;2024-02-23T00:03:23;91176.19;;;7.48;83.12
84020;BME280;74102;49.084;13.694;2024-02-23T00:05:48;91180.63;;;7.48;82.94
84020;BME280;74102;49.084;13.694;2024-02-23T00:08:13;91181.81;;;7.45;82.89
84020;BME280;74102;49.084;13.694;2024-02-23T00:10:39;91177.41;;;7.46;82.81
84020;BME280;74102;49.084;13.694;2024-02-23T00:13:04;91193.00;;;7.46;82.79
84020;BME280;74102;49.084;13.694;2024-02-23T00:15:29;91195.03;;;7.43;82.80
84020;BME280;74102;49.084;13.694;2024-02-23T00:17:55;91196.03;;;7.42;82.38
84020;BME280;74102;49.084;13.694;2024-02-23T00:20:20;91204.25;;;7.39;82.77
84020;BME280;74102;49.084;13.694;2024-02-23T00:22:46;91213.84;;;7.39;83.06
84020;BME280;74102;49.084;13.694;2024-02-23T00:25:11;91219.84;;;7.39;82.87
84020;BME280;74102;49.084;13.694;2024-02-23T00:27:37;91221.84;;;7.37;82.69
84020;BME280;74102;49.084;13.694;2024-02-23T00:30:05;91214.06;;;7.37;83.00
84020;BME280;74102;49.084;13.694;2024-02-23T00:32:30;91219.06;;;7.32;82.92
84020;BME280;74102;49.084;13.694;2024-02-23T00:34:56;91231.28;;;7.32;83.02
84020;BME280;74102;49.084;13.694;2024-02-23T00:37:22;91234.66;;;7.32;82.86
84020;BME280;74102;49.084;13.694;2024-02-23T00:39:47;91237.47;;;7.31;83.08
84020;BME280;74102;49.084;13.694;2024-02-23T00:42:13;91254.44;;;7.40;82.98
84020;BME280;74102;49.084;13.694;2024-02-23T00:44:38;91253.84;;;7.45;82.66
84020;BME280;74102;49.084;13.694;2024-02-23T00:47:04;91268.22;;;7.54;82.34
84020;BME280;74102;49.084;13.694;2024-02-23T00:49:29;91280.97;;;7.62;82.45
84020;BME280;74102;49.084;13.694;2024-02-23T00:51:55;91271.38;;;7.69;82.28
84020;BME280;74102;49.084;13.694;2024-02-23T00:54:21;91286.75;;;7.77;82.09
84020;BME280;74102;49.084;13.694;2024-02-23T00:56:46;91285.94;;;7.83;82.28
84020;BME280;74102;49.084;13.694;2024-02-23T00:59:11;91290.13;;;7.84;82.34
84020;BME280;74102;49.084;13.694;2024-02-23T01:01:37;91298.53;;;7.86;82.45
84020;BME280;74102;49.084;13.694;2024-02-23T01:04:02;91311.97;;;7.83;82.28
84020;BME280;74102;49.084;13.694;2024-02-23T01:06:27;91315.31;;;7.90;81.79
84020;BME280;74102;49.084;13.694;2024-02-23T01:08:53;91313.31;;;7.92;82.04
84020;BME280;74102;49.084;13.694;2024-02-23T01:11:19;91334.75;;;7.87;80.17
84020;BME280;74102;49.084;13.694;2024-02-23T01:13:44;91332.94;;;7.88;80.22
84020;BME280;74102;49.084;13.694;2024-02-23T01:16:09;91337.38;;;7.81;79.53
84020;BME280;74102;49.084;13.694;2024-02-23T01:18:35;91334.97;;;7.79;80.69
84020;BME280;74102;49.084;13.694;2024-02-23T01:21:00;91350.19;;;7.76;80.43
84020;BME280;74102;49.084;13.694;2024-02-23T01:23:25;91364.63;;;7.72;80.63
84020;BME280;74102;49.084;13.694;2024-02-23T01:25:51;91377.03;;;7.70;81.40
84020;BME280;74102;49.084;13.694;2024-02-23T01:28:17;91384.22;;;7.68;81.14
84020;BME280;74102;49.084;13.694;2024-02-23T01:30:42;91443.06;;;7.56;79.34
84020;BME280;74102;49.084;13.694;2024-02-23T01:33:07;91448.66;;;7.20;77.96
84020;BME280;74102;49.084;13.694;2024-02-23T01:35:33;91456.59;;;6.92;77.87
84020;BME280;74102;49.084;13.694;2024-02-23T01:37:58;91438.94;;;6.68;77.93
84020;BME280;74102;49.084;13.694;2024-02-23T01:40:24;91434.88;;;6.46;77.04
84020;BME280;74102;49.084;13.694;2024-02-23T01:43:00;91429.88;;;6.38;77.78
84020;BME280;74102;49.084;13.694;2024-02-23T01:45:26;91416.03;;;6.24;77.65
84020;BME280;74102;49.084;13.694;2024-02-23T01:47:51;91412.03;;;6.21;79.28
84020;BME280;74102;49.084;13.694;2024-02-23T01:50:17;91410.81;;;6.17;79.43
84020;BME280;74102;49.084;13.694;2024-02-23T01:52:42;91421.56;;;6.14;78.60
84020;BME280;74102;49.084;13.694;2024-02-23T01:55:08;91413.56;;;6.09;79.82
84020;BME280;74102;49.084;13.694;2024-02-23T01:57:34;91412.34;;;6.05;78.53
84020;BME280;74102;49.084;13.694;2024-02-23T01:59:59;91396.97;;;6.04;79.37
84020;BME280;74102;49.084;13.694;2024-02-23T02:02:25;91397.97;;;6.03;79.51
84020;BME280;74102;49.084;13.694;2024-02-23T02:04:50;91398.16;;;6.01;79.03
84020;BME280;74102;49.084;13.694;2024-02-23T02:07:15;91405.94;;;6.01;79.38
84020;BME280;74102;49.084;13.694;2024-02-23T02:09:43;91402.16;;;5.97;79.37
84020;BME280;74102;49.084;13.694;2024-02-23T02:12:08;91400.91;;;5.93;79.52
84020;BME280;74102;49.084;13.694;2024-02-23T02:14:34;91399.91;;;5.94;79.66
84020;BME280;74102;49.084;13.694;2024-02-23T02:16:59;91403.53;;;6.00;79.91
84020;BME280;74102;49.084;13.694;2024-02-23T02:19:25;91403.53;;;6.00;79.71
84020;BME280;74102;49.084;13.694;2024-02-23T02:21:50;91407.94;;;5.99;79.98
84020;BME280;74102;49.084;13.694;2024-02-23T02:24:15;91397.16;;;6.02;80.12
84020;BME280;74102;49.084;13.694;2024-02-23T02:26:41;91400.34;;;6.04;79.73
84020;BME280;74102;49.084;13.694;2024-02-23T02:29:07;91395.16;;;6.04;79.42
84020;BME280;74102;49.084;13.694;2024-02-23T02:31:33;91405.53;;;6.04;80.10
84020;BME280;74102;49.084;13.694;2024-02-23T02:34:03;91413.56;;;6.09;79.75
84020;BME280;74102;49.084;13.694;2024-02-23T02:36:28;91406.22;;;6.13;79.66
84020;BME280;74102;49.084;13.694;2024-02-23T02:38:54;91406.59;;;6.10;79.47
84020;BME280;74102;49.084;13.694;2024-02-23T02:41:19;91398.84;;;6.16;79.99
84020;BME280;74102;49.084;13.694;2024-02-23T02:43:44;91399.63;;;6.23;80.29
84020;BME280;74102;49.084;13.694;2024-02-23T02:46:10;91406.66;;;6.29;80.42
84020;BME280;74102;49.084;13.694;2024-02-23T02:48:35;91410.84;;;6.30;80.65
84020;BME280;74102;49.084;13.694;2024-02-23T02:51:01;91410.06;;;6.30;80.93
84020;BME280;74102;49.084;13.694;2024-02-23T02:53:26;91412.88;;;6.35;80.05
84020;BME280;74102;49.084;13.694;2024-02-23T02:55:51;91414.88;;;6.40;80.14
84020;BME280;74102;49.084;13.694;2024-02-23T02:58:17;91415.69;;;6.40;79.94
84020;BME280;74102;49.084;13.694;2024-02-23T03:00:42;91415.13;;;6.45;79.87
84020;BME280;74102;49.084;13.694;2024-02-23T03:03:08;91421.72;;;6.47;80.36
84020;BME280;74102;49.084;13.694;2024-02-23T03:05:33;91423.09;;;6.50;79.22
84020;BME280;74102;49.084;13.694;2024-02-23T03:07:59;91433.31;;;6.51;79.70
84020;BME280;74102;49.084;13.694;2024-02-23T03:10:24;91441.91;;;6.52;80.62
84020;BME280;74102;49.084;13.694;2024-02-23T03:12:50;91437.31;;;6.54;80.82
84020;BME280;74102;49.084;13.694;2024-02-23T03:15:15;91444.50;;;6.52;79.82
84020;BME280;74102;49.084;13.694;2024-02-23T03:17:41;91454.03;;;6.38;79.45
84020;BME280;74102;49.084;13.694;2024-02-23T03:20:07;91458.81;;;6.34;78.97
84020;BME280;74102;49.084;13.694;2024-02-23T03:22:36;91446.00;;;6.33;79.47
84020;BME280;74102;49.084;13.694;2024-02-23T03:25:02;91452.00;;;6.33;78.63
84020;BME280;74102;49.084;13.694;2024-02-23T03:27:36;91450.22;;;6.34;78.98
84020;BME280;74102;49.084;13.694;2024-02-23T03:30:03;91454.22;;;6.36;80.37
84020;BME280;74102;49.084;13.694;2024-02-23T03:32:28;91462.00;;;6.36;78.34
84020;BME280;74102;49.084;13.694;2024-02-23T03:34:54;91456.41;;;6.40;80.43
84020;BME280;74102;49.084;13.694;2024-02-23T03:37:19;91466.78;;;6.33;79.42
84020;BME280;74102;49.084;13.694;2024-02-23T03:39:44;91476.34;;;6.32;79.47
84020;BME280;74102;49.084;13.694;2024-02-23T03:42:10;91474.78;;;6.31;79.69
84020;BME280;74102;49.084;13.694;2024-02-23T03:44:35;91479.97;;;6.31;80.41
84020;BME280;74102;49.084;13.694;2024-02-23T03:47:00;91489.34;;;6.32;80.42
84020;BME280;74102;49.084;13.694;2024-02-23T03:49:26;91489.97;;;6.34;80.28
84020;BME280;74102;49.084;13.694;2024-02-23T03:51:51;91503.13;;;6.33;79.98
84020;BME280;74102;49.084;13.694;2024-02-23T03:54:17;91503.88;;;6.27;78.57
84020;BME280;74102;49.084;13.694;2024-02-23T03:56:42;91518.22;;;6.16;79.21
84020;BME280;74102;49.084;13.694;2024-02-23T03:59:08;91528.59;;;6.16;79.62
84020;BME280;74102;49.084;13.694;2024-02-23T04:01:36;91532.56;;;6.12;79.24
84020;BME280;74102;49.084;13.694;2024-02-23T04:04:02;91535.25;;;5.98;77.65
84020;BME280;74102;49.084;13.694;2024-02-23T04:06:27;91548.16;;;5.91;78.43
84020;BME280;74102;49.084;13.694;2024-02-23T04:08:52;91549.56;;;5.87;77.07
84020;BME280;74102;49.084;13.694;2024-02-23T04:11:18;91569.28;;;5.67;75.68
84020;BME280;74102;49.084;13.694;2024-02-23T04:13:43;91583.50;;;5.50;75.42
84020;BME280;74102;49.084;13.694;2024-02-23T04:16:08;91573.78;;;5.37;74.77
84020;BME280;74102;49.084;13.694;2024-02-23T04:18:34;91581.88;;;5.27;73.06
84020;BME280;74102;49.084;13.694;2024-02-23T04:20:59;91583.22;;;5.23;74.14
84020;BME280;74102;49.084;13.694;2024-02-23T04:23:24;91584.84;;;5.24;74.71
84020;BME280;74102;49.084;13.694;2024-02-23T04:25:50;91583.72;;;5.12;73.11
84020;BME280;74102;49.084;13.694;2024-02-23T04:28:16;91581.50;;;5.09;75.07
84020;BME280;74102;49.084;13.694;2024-02-23T04:30:41;91579.00;;;5.01;73.95
84020;BME280;74102;49.084;13.694;2024-02-23T04:33:06;91576.16;;;4.96;74.30
84020;BME280;74102;49.084;13.694;2024-02-23T04:35:32;91584.28;;;4.93;73.69
84020;BME280;74102;49.084;13.694;2024-02-23T04:37:57;91602.44;;;4.93;74.79
84020;BME280;74102;49.084;13.694;2024-02-23T04:40:22;91600.81;;;4.92;73.15
84020;BME280;74102;49.084;13.694;2024-02-23T04:42:48;91607.59;;;4.93;74.04
84020;BME280;74102;49.084;13.694;2024-02-23T04:45:13;91613.22;;;4.97;73.62
84020;BME280;74102;49.084;13.694;2024-02-23T04:47:38;91608.56;;;4.92;71.98
84020;BME280;74102;49.084;13.694;2024-02-23T04:50:06;91608.56;;;4.92;73.38
84020;BME280;74102;49.084;13.694;2024-02-23T04:52:31;91613.69;;;5.00;74.40
84020;BME280;74102;49.084;13.694;2024-02-23T04:54:57;91620.81;;;4.98;74.04
84020;BME280;74102;49.084;13.694;2024-02-23T04:57:23;91624.41;;;4.97;72.68
84020;BME280;74102;49.084;13.694;2024-02-23T04:59:48;91611.53;;;4.89;70.74
84020;BME280;74102;49.084;13.694;2024-02-23T05:02:14;91615.09;;;4.88;72.76
84020;BME280;74102;49.084;13.694;2024-02-23T05:04:39;91614.69;;;4.85;73.27
84020;BME280;74102;49.084;13.694;2024-02-23T05:07:05;91622.00;;;4.81;73.34
84020;BME280;74102;49.084;13.694;2024-02-23T05:09:30;91610.41;;;4.77;72.18
84020;BME280;74102;49.084;13.694;2024-02-23T05:11:56;91618.25;;;4.84;74.09
84020;BME280;74102;49.084;13.694;2024-02-23T05:14:22;91610.56;;;4.90;73.86
84020;BME280;74102;49.084;13.694;2024-02-23T05:16:47;91599.03;;;4.93;nan
84020;BME280;74102;49.084;13.694;2024-02-23T05:19:12;91598.50;;;4.97;74.64
84020;BME280;74102;49.084;13.694;2024-02-23T05:21:38;91582.75;;;4.99;75.09
84020;BME280;74102;49.084;13.694;2024-02-23T05:24:03;91595.72;;;4.99;73.49
84020;BME280;74102;49.084;13.694;2024-02-23T05:26:31;91599.47;;;4.96;72.27
84020;BME280;74102;49.084;13.694;2024-02-23T05:28:56;91588.88;;;4.91;72.89
84020;BME280;74102;49.084;13.694;2024-02-23T05:31:48;91598.22;;;4.92;72.63
84020;BME280;74102;49.084;13.694;2024-02-23T05:34:14;91602.06;;;4.96;73.26
84020;BME280;74102;49.084;13.694;2024-02-23T05:36:39;91595.63;;;4.92;71.66
84020;BME280;74102;49.084;13.694;2024-02-23T05:39:05;91607.00;;;4.91;74.17
84020;BME280;74102;49.084;13.694;2024-02-23T05:41:32;91599.56;;;4.88;74.44
84020;BME280;74102;49.084;13.694;2024-02-23T05:43:58;91596.97;;;4.88;73.59
84020;BME280;74102;49.084;13.694;2024-02-23T05:46:23;91596.72;;;4.83;70.94
84020;BME280;74102;49.084;13.694;2024-02-23T05:48:48;91583.53;;;4.78;72.21
84020;BME280;74102;49.084;13.694;2024-02-23T05:51:14;91599.41;;;4.75;69.99
84020;BME280;74102;49.084;13.694;2024-02-23T05:53:41;91602.81;;;4.61;70.30
84020;BME280;74102;49.084;13.694;2024-02-23T05:56:06;91603.09;;;4.51;70.84
84020;BME280;74102;49.084;13.694;2024-02-23T05:58:31;91590.66;;;4.47;70.85
84020;BME280;74102;49.084;13.694;2024-02-23T06:00:57;91593.78;;;4.57;73.30
84020;BME280;74102;49.084;13.694;2024-02-23T06:03:22;91611.56;;;4.60;73.63
84020;BME280;74102;49.084;13.694;2024-02-23T06:05:47;91594.88;;;4.48;71.17
84020;BME280;74102;49.084;13.694;2024-02-23T06:08:13;91602.09;;;4.38;69.83
84020;BME280;74102;49.084;13.694;2024-02-23T06:10:38;91594.78;;;4.27;69.96
84020;BME280;74102;49.084;13.694;2024-02-23T06:13:04;91599.06;;;4.19;70.83
84020;BME280;74102;49.084;13.694;2024-02-23T06:15:29;91604.50;;;4.24;71.76
84020;BME280;74102;49.084;13.694;2024-02-23T06:17:54;91611.53;;;4.31;73.81
84020;BME280;74102;49.084;13.694;2024-02-23T06:20:20;91617.06;;;4.28;71.16
84020;BME280;74102;49.084;13.694;2024-02-23T06:22:45;91621.38;;;4.20;70.81
84020;BME280;74102;49.084;13.694;2024-02-23T06:25:10;91634.31;;;4.20;72.38
84020;BME280;74102;49.084;13.694;2024-02-23T06:27:37;91647.78;;;4.31;73.27
84020;BME280;74102;49.084;13.694;2024-02-23T06:30:03;91646.91;;;4.38;73.33
84020;BME280;74102;49.084;13.694;2024-02-23T06:32:29;91658.31;;;4.44;72.81
84020;BME280;74102;49.084;13.694;2024-02-23T06:34:54;91665.91;;;4.45;71.81
84020;BME280;74102;49.084;13.694;2024-02-23T06:37:20;91672.25;;;4.43;72.18
84020;BME280;74102;49.084;13.694;2024-02-23T06:39:45;91669.31;;;4.46;73.17
84020;BME280;74102;49.084;13.694;2024-02-23T06:42:15;91664.13;;;4.46;73.41
84020;BME280;74102;49.084;13.694;2024-02-23T06:44:40;91677.88;;;4.46;72.49
84020;BME280;74102;49.084;13.694;2024-02-23T06:47:06;91684.13;;;4.52;72.58
84020;BME280;74102;49.084;13.694;2024-02-23T06:49:31;91688.31;;;4.53;72.64
84020;BME280;74102;49.084;13.694;2024-02-23T06:51:57;91686.97;;;4.57;73.73
84020;BME280;74102;49.084;13.694;2024-02-23T06:54:22;91688.97;;;4.55;72.52
84020;BME280;74102;49.084;13.694;2024-02-23T06:56:48;91687.19;;;4.55;71.95
84020;BME280;74102;49.084;13.694;2024-02-23T06:59:13;91686.72;;;4.52;71.43
84020;BME280;74102;49.084;13.694;2024-02-23T07:01:51;91676.72;;;4.49;71.21
84020;BME280;74102;49.084;13.694;2024-02-23T07:04:17;91684.66;;;4.47;69.93
84020;BME280;74102;49.084;13.694;2024-02-23T07:06:43;91687.06;;;4.49;70.54
84020;BME280;74102;49.084;13.694;2024-02-23T07:09:09;91698.50;;;4.40;70.46
84020;BME280;74102;49.084;13.694;2024-02-23T07:11:35;91699.81;;;4.36;70.34
84020;BME280;74102;49.084;13.694;2024-02-23T07:14:00;91704.00;;;4.37;71.05
84020;BME280;74102;49.084;13.694;2024-02-23T07:16:25;91693.75;;;4.43;71.08
84020;BME280;74102;49.084;13.694;2024-02-23T07:18:51;91692.25;;;4.49;70.95
84020;BME280;74102;49.084;13.694;2024-02-23T07:21:17;91694.41;;;4.60;72.44
84020;BME280;74102;49.084;13.694;2024-02-23T07:23:43;91709.31;;;4.72;72.29
84020;BME280;74102;49.084;13.694;2024-02-23T07:26:09;91711.03;;;4.80;71.78
84020;BME280;74102;49.084;13.694;2024-02-23T07:28:34;91718.63;;;4.82;69.46
84020;BME280;74102;49.084;13.694;2024-02-23T07:30:59;91720.13;;;4.76;70.71
84020;BME280;74102;49.084;13.694;2024-02-23T07:33:25;91722.72;;;4.76;71.20
84020;BME280;74102;49.084;13.694;2024-02-23T07:35:50;91734.50;;;4.78;70.32
84020;BME280;74102;49.084;13.694;2024-02-23T07:38:15;91729.69;;;4.75;70.76
84020;BME280;74102;49.084;13.694;2024-02-23T07:40:42;91731.28;;;4.76;70.71
84020;BME280;74102;49.084;13.694;2024-02-23T07:43:08;91730.47;;;4.76;70.60
84020;BME280;74102;49.084;13.694;2024-02-23T07:45:35;91730.47;;;4.76;70.38
84020;BME280;74102;49.084;13.694;2024-02-23T07:48:01;91727.63;;;4.71;70.30
84020;BME280;74102;49.084;13.694;2024-02-23T07:50:26;91734.06;;;4.75;71.04
84020;BME280;74102;49.084;13.694;2024-02-23T07:52:52;91731.22;;;4.85;71.49
84020;BME280;74102;49.084;13.694;2024-02-23T07:55:17;91737.28;;;4.92;72.05
84020;BME280;74102;49.084;13.694;2024-02-23T07:57:42;91735.50;;;4.92;70.74
84020;BME280;74102;49.084;13.694;2024-02-23T08:00:08;91744.34;;;4.98;71.24
84020;BME280;74102;49.084;13.694;2024-02-23T08:02:35;91739.34;;;4.96;69.36
84020;BME280;74102;49.084;13.694;2024-02-23T08:05:01;91731.56;;;4.96;70.01
84020;BME280;74102;49.084;13.694;2024-02-23T08:07:26;91725.78;;;4.94;69.16
84020;BME280;74102;49.084;13.694;2024-02-23T08:09:53;91736.03;;;5.02;70.62
84020;BME280;74102;49.084;13.694;2024-02-23T08:12:19;91740.59;;;5.15;70.13
84020;BME280;74102;49.084;13.694;2024-02-23T08:14:44;91736.41;;;5.28;70.49
84020;BME280;74102;49.084;13.694;2024-02-23T08:17:11;91724.56;;;5.41;70.78
84020;BME280;74102;49.084;13.694;2024-02-23T08:19:36;91712.75;;;5.53;70.90
84020;BME280;74102;49.084;13.694;2024-02-23T08:22:01;91703.63;;;5.57;70.23
84020;BME280;74102;49.084;13.694;2024-02-23T08:24:27;91719.19;;;5.57;69.74
84020;BME280;74102;49.084;13.694;2024-02-23T08:26:52;91717.84;;;5.61;70.48
84020;BME280;74102;49.084;13.694;2024-02-23T08:29:19;91717.13;;;5.67;70.19
84020;BME280;74102;49.084;13.694;2024-02-23T08:31:44;91724.53;;;5.70;69.79
84020;BME280;74102;49.084;13.694;2024-02-23T08:34:10;91713.41;;;5.76;69.56
84020;BME280;74102;49.084;13.694;2024-02-23T08:36:35;91726.28;;;5.84;70.72
84020;BME280;74102;49.084;13.694;2024-02-23T08:39:01;91734.72;;;5.86;68.82
84020;BME280;74102;49.084;13.694;2024-02-23T08:41:26;91720.75;;;5.87;69.83
84020;BME280;74102;49.084;13.694;2024-02-23T08:43:51;91723.97;;;5.89;67.65
84020;BME280;74102;49.084;13.694;2024-02-23T08:46:17;91725.41;;;5.77;66.75
84020;BME280;74102;49.084;13.694;2024-02-23T08:48:43;91724.53;;;5.70;67.34
84020;BME280;74102;49.084;13.694;2024-02-23T08:51:09;91721.97;;;5.55;67.15
84020;BME280;74102;49.084;13.694;2024-02-23T08:53:34;91715.91;;;5.48;67.03
84020;BME280;74102;49.084;13.694;2024-02-23T08:55:59;91701.53;;;5.46;67.79
84020;BME280;74102;49.084;13.694;2024-02-23T08:58:25;91698.44;;;5.57;67.97
84020;BME280;74102;49.084;13.694;2024-02-23T09:00:51;91703.34;;;5.66;67.71
84020;BME280;74102;49.084;13.694;2024-02-23T09:03:16;91702.53;;;5.66;67.75
84020;BME280;74102;49.084;13.694;2024-02-23T09:05:41;91695.13;;;5.63;67.88
84020;BME280;74102;49.084;13.694;2024-02-23T09:08:07;91700.94;;;5.65;66.74
84020;BME280;74102;49.084;13.694;2024-02-23T09:10:32;91690.19;;;5.68;65.12
84020;BME280;74102;49.084;13.694;2024-02-23T09:12:57;91689.47;;;5.74;67.65
84020;BME280;74102;49.084;13.694;2024-02-23T09:15:23;91674.06;;;5.72;65.88
84020;BME280;74102;49.084;13.694;2024-02-23T09:17:48;91683.03;;;5.70;66.37
84020;BME280;74102;49.084;13.694;2024-02-23T09:20:13;91672.97;;;5.60;65.33
84020;BME280;74102;49.084;13.694;2024-02-23T09:22:39;91679.75;;;5.61;65.89
84020;BME280;74102;49.084;13.694;2024-02-23T09:25:06;91688.22;;;5.70;65.42
84020;BME280;74102;49.084;13.694;2024-02-23T09:27:31;91691.56;;;5.85;65.76
84020;BME280;74102;49.084;13.694;2024-02-23T09:29:57;91686.16;;;6.01;64.56
84020;BME280;74102;49.084;13.694;2024-02-23T09:32:24;91683.09;;;6.12;63.50
84020;BME280;74102;49.084;13.694;2024-02-23T09:34:49;91683.13;;;6.19;64.86
84020;BME280;74102;49.084;13.694;2024-02-23T09:37:14;91685.47;;;6.14;64.11
84020;BME280;74102;49.084;13.694;2024-02-23T09:39:40;91699.53;;;6.19;65.40
84020;BME280;74102;49.084;13.694;2024-02-23T09:42:09;91680.41;;;6.27;64.69
84020;BME280;74102;49.084;13.694;2024-02-23T09:44:35;91680.72;;;6.17;65.21
84020;BME280;74102;49.084;13.694;2024-02-23T09:47:03;91680.34;;;6.20;64.27
84020;BME280;74102;49.084;13.694;2024-02-23T09:49:39;91688.38;;;6.25;65.12
84020;BME280;74102;49.084;13.694;2024-02-23T09:52:09;91702.97;;;6.26;64.69
84020;BME280;74102;49.084;13.694;2024-02-23T09:54:36;91714.19;;;6.33;66.06
84020;BME280;74102;49.084;13.694;2024-02-23T09:57:06;91723.22;;;6.38;64.60
84020;BME280;74102;49.084;13.694;2024-02-23T09:59:32;91730.03;;;6.39;62.20
84020;BME280;74102;49.084;13.694;2024-02-23T10:01:59;91716.06;;;6.40;63.52
84020;BME280;74102;49.084;13.694;2024-02-23T10:04:26;91719.66;;;6.39;63.12
84020;BME280;74102;49.084;13.694;2024-02-23T10:06:54;91716.44;;;6.36;61.23
84020;BME280;74102;49.084;13.694;2024-02-23T10:09:19;91716.47;;;6.43;65.37
84020;BME280;74102;49.084;13.694;2024-02-23T10:11:52;91721.56;;;6.51;62.94
84020;BME280;74102;49.084;13.694;2024-02-23T10:14:17;91731.09;;;6.44;62.44
84020;BME280;74102;49.084;13.694;2024-02-23T10:16:42;91730.03;;;6.39;63.05
84020;BME280;74102;49.084;13.694;2024-02-23T10:19:07;91736.44;;;6.43;61.83
84020;BME280;74102;49.084;13.694;2024-02-23T10:21:34;91742.28;;;6.45;62.61
84020;BME280;74102;49.084;13.694;2024-02-23T10:24:00;91752.41;;;6.40;63.63
84020;BME280;74102;49.084;13.694;2024-02-23T10:26:26;91749.00;;;6.39;61.33
84020;BME280;74102;49.084;13.694;2024-02-23T10:28:52;91759.47;;;6.24;61.95
84020;BME280;74102;49.084;13.694;2024-02-23T10:31:18;91770.59;;;6.18;62.31
84020;BME280;74102;49.084;13.694;2024-02-23T10:33:44;91767.72;;;6.13;63.74
84020;BME280;74102;49.084;13.694;2024-02-23T10:36:11;91772.19;;;6.19;63.95
84020;BME280;74102;49.084;13.694;2024-02-23T10:38:42;91756.69;;;6.26;62.90
84020;BME280;74102;49.084;13.694;2024-02-23T10:41:12;91753.16;;;6.33;63.47
84020;BME280;74102;49.084;13.694;2024-02-23T10:43:48;91752.66;;;6.45;63.27
84020;BME280;74102;49.084;13.694;2024-02-23T10:46:14;91753.66;;;6.44;62.18
84020;BME280;74102;49.084;13.694;2024-02-23T10:48:41;91760.19;;;6.40;61.96
84020;BME280;74102;49.084;13.694;2024-02-23T10:51:07;91748.81;;;6.41;61.54
84020;BME280;74102;49.084;13.694;2024-02-23T10:53:36;91749.50;;;6.49;63.90
84020;BME280;74102;49.084;13.694;2024-02-23T10:56:03;91746.50;;;6.52;62.98
84020;BME280;74102;49.084;13.694;2024-02-23T10:58:29;91761.78;;;6.62;63.83
84020;BME280;74102;49.084;13.694;2024-02-23T11:00:59;91754.63;;;6.64;63.62
84020;BME280;74102;49.084;13.694;2024-02-23T11:03:28;91758.81;;;6.65;64.00
84020;BME280;74102;49.084;13.694;2024-02-23T11:05:53;91750.25;;;6.64;62.26
84020;BME280;74102;49.084;13.694;2024-02-23T11:08:19;91753.00;;;6.63;61.28
84020;BME280;74102;49.084;13.694;2024-02-23T11:10:51;91745.00;;;6.58;61.44
84020;BME280;74102;49.084;13.694;2024-02-23T11:13:36;91762.53;;;6.56;62.42
84020;BME280;74102;49.084;13.694;2024-02-23T11:16:02;91754.50;;;6.51;61.24
84020;BME280;74102;49.084;13.694;2024-02-23T11:18:29;91757.72;;;6.53;61.19
84020;BME280;74102;49.084;13.694;2024-02-23T11:20:55;91760.06;;;6.48;61.26
84020;BME280;74102;49.084;13.694;2024-02-23T11:23:22;91758.47;;;6.47;61.75
84020;BME280;74102;49.084;13.694;2024-02-23T11:28:28;91758.41;;;6.40;62.33
84020;BME280;74102;49.084;13.694;2024-02-23T11:30:54;91745.34;;;6.33;61.92
84020;BME280;74102;49.084;13.694;2024-02-23T11:33:29;91740.53;;;6.30;63.07
84020;BME280;74102;49.084;13.694;2024-02-23T11:36:21;91738.69;;;6.24;62.71
84020;BME280;74102;49.084;13.694;2024-02-23T11:38:47;91746.84;;;6.21;63.38
84020;BME280;74102;49.084;13.694;2024-02-23T11:41:13;91740.63;;;6.16;63.68
84020;BME280;74102;49.084;13.694;2024-02-23T11:43:39;91740.41;;;6.17;65.18
84020;BME280;74102;49.084;13.694;2024-02-23T11:46:04;91748.47;;;6.22;64.27
84020;BME280;74102;49.084;13.694;2024-02-23T11:48:30;91745.13;;;6.28;64.47
84020;BME280;74102;49.084;13.694;2024-02-23T11:50:55;91735.94;;;6.32;62.97
84020;BME280;74102;49.084;13.694;2024-02-23T11:53:22;91742.91;;;6.25;63.20
84020;BME280;74102;49.084;13.694;2024-02-23T11:55:48;91746.09;;;6.27;63.33
84020;BME280;74102;49.084;13.694;2024-02-23T11:58:13;91738.22;;;6.35;63.00
84020;BME280;74102;49.084;13.694;2024-02-23T12:00:40;91736.81;;;6.40;63.83
84020;BME280;74102;49.084;13.694;2024-02-23T12:03:05;91744.38;;;6.34;62.67
84020;BME280;74102;49.084;13.694;2024-02-23T12:05:32;91744.63;;;6.40;64.23
84020;BME280;74102;49.084;13.694;2024-02-23T12:07:57;91751.53;;;6.54;65.30
84020;BME280;74102;49.084;13.694;2024-02-23T12:10:23;91749.81;;;6.61;62.15
84020;BME280;74102;49.084;13.694;2024-02-23T12:12:51;91748.78;;;6.62;61.44
84020;BME280;74102;49.084;13.694;2024-02-23T12:15:16;91736.81;;;6.61;61.45
84020;BME280;74102;49.084;13.694;2024-02-23T12:17:49;91731.63;;;6.61;60.94
84020;BME280;74102;49.084;13.694;2024-02-23T12:20:14;91729.03;;;6.61;62.39
84020;BME280;74102;49.084;13.694;2024-02-23T12:22:41;91722.69;;;6.70;61.36
84020;BME280;74102;49.084;13.694;2024-02-23T12:25:07;91726.75;;;6.79;63.03
84020;BME280;74102;49.084;13.694;2024-02-23T12:27:32;91725.16;;;6.78;62.25
84020;BME280;74102;49.084;13.694;2024-02-23T12:29:58;91730.28;;;6.71;62.78
84020;BME280;74102;49.084;13.694;2024-02-23T12:32:24;91728.16;;;6.54;62.21
84020;BME280;74102;49.084;13.694;2024-02-23T12:34:50;91728.78;;;6.56;63.70
84020;BME280;74102;49.084;13.694;2024-02-23T12:37:21;91731.84;;;6.66;64.05
84020;BME280;74102;49.084;13.694;2024-02-23T12:39:48;91734.56;;;6.79;62.81
84020;BME280;74102;49.084;13.694;2024-02-23T12:42:13;91735.19;;;6.87;63.67
84020;BME280;74102;49.084;13.694;2024-02-23T12:44:43;91736.88;;;6.95;62.57
84020;BME280;74102;49.084;13.694;2024-02-23T12:47:46;91730.91;;;7.01;61.23
84020;BME280;74102;49.084;13.694;2024-02-23T12:50:11;91731.09;;;7.00;64.06
84020;BME280;74102;49.084;13.694;2024-02-23T12:53:04;91728.16;;;7.09;63.26
84020;BME280;74102;49.084;13.694;2024-02-23T12:55:30;91731.03;;;7.21;62.66
84020;BME280;74102;49.084;13.694;2024-02-23T12:57:55;91726.81;;;7.20;61.11